createdAt,value
2022-10-09T00:04:05.449Z,62.78
2022-10-09T00:09:08.068Z,62.64
2022-10-09T00:14:10.512Z,62.31
2022-10-09T00:19:12.909Z,62.96
2022-10-09T00:24:15.303Z,63.30
2022-10-09T00:29:17.724Z,62.88
2022-10-09T00:34:20.124Z,63.20
2022-10-09T00:39:22.593Z,63.28
2022-10-09T00:44:47.342Z,63.36
2022-10-09T00:49:52.939Z,63.80
2022-10-09T00:54:57.023Z,63.63
2022-10-09T01:00:02.728Z,63.96
2022-10-09T01:05:06.810Z,64.13
2022-10-09T01:10:21.393Z,64.21
2022-10-09T01:15:31.128Z,64.27
2022-10-09T01:20:41.210Z,64.32
2022-10-09T01:26:00.502Z,64.26
2022-10-09T01:31:05.540Z,64.12
2022-10-09T01:36:09.844Z,63.93
2022-10-09T01:41:12.543Z,63.95
2022-10-09T01:46:24.730Z,64.02
2022-10-09T01:51:34.581Z,64.16
2022-10-09T01:56:39.443Z,63.84
2022-10-09T02:01:43.148Z,64.61
2022-10-09T02:06:47.868Z,64.42
2022-10-09T02:11:55.319Z,65.01
2022-10-09T02:17:10.187Z,64.72
2022-10-09T02:22:20.246Z,64.69
2022-10-09T02:27:23.250Z,64.96
2022-10-09T02:32:25.832Z,64.81
2022-10-09T02:37:28.252Z,64.63
2022-10-09T02:42:30.988Z,64.24
2022-10-09T02:47:33.908Z,64.06
2022-10-09T02:52:36.677Z,64.10
2022-10-09T02:57:40.150Z,64.39
2022-10-09T03:02:42.639Z,64.60
2022-10-09T03:07:51.143Z,64.89
2022-10-09T03:12:53.580Z,64.79
2022-10-09T03:17:55.977Z,64.64
2022-10-09T03:22:58.374Z,64.64
2022-10-09T03:28:00.796Z,64.05
2022-10-09T03:33:03.256Z,63.85
2022-10-09T03:38:05.664Z,64.35
2022-10-09T03:43:08.434Z,64.79
2022-10-09T03:48:12.080Z,64.59
2022-10-09T03:53:15.754Z,65.02
2022-10-09T03:58:18.482Z,65.32
2022-10-09T04:03:21.766Z,65.84
2022-10-09T04:08:24.218Z,65.74
2022-10-09T04:13:27.292Z,65.82
2022-10-09T04:18:30.495Z,65.80
2022-10-09T04:23:33.279Z,65.70
2022-10-09T04:28:35.806Z,66.24
2022-10-09T04:33:38.337Z,66.63
2022-10-09T04:38:40.796Z,66.35
2022-10-09T04:43:43.303Z,66.50
2022-10-09T04:48:46.430Z,66.41
2022-10-09T04:53:48.924Z,66.84
2022-10-09T04:58:51.714Z,66.42
2022-10-09T05:03:54.688Z,66.82
2022-10-09T05:08:57.298Z,67.23
2022-10-09T05:13:59.694Z,67.84
2022-10-09T05:19:02.542Z,67.02
2022-10-09T05:24:09.479Z,67.32
2022-10-09T05:29:12.733Z,67.41
2022-10-09T05:34:15.147Z,67.21
2022-10-09T05:39:17.602Z,66.61
2022-10-09T05:44:20.086Z,65.96
2022-10-09T05:49:22.520Z,65.93
2022-10-09T05:54:24.977Z,65.66
2022-10-09T05:59:27.500Z,65.00
2022-10-09T06:04:30.303Z,64.78
2022-10-09T06:09:32.702Z,64.18
2022-10-09T06:14:35.109Z,64.03
2022-10-09T06:19:37.584Z,63.60
2022-10-09T06:24:39.999Z,62.80
2022-10-09T06:29:42.437Z,63.05
2022-10-09T06:34:44.838Z,61.80
2022-10-09T06:39:47.426Z,61.79
2022-10-09T06:44:49.870Z,61.17
2022-10-09T06:49:52.361Z,60.69
2022-10-09T06:54:54.826Z,60.22
2022-10-09T06:59:57.816Z,60.65
2022-10-09T07:05:00.261Z,60.81
2022-10-09T07:10:02.911Z,60.91
2022-10-09T07:15:06.549Z,60.52
2022-10-09T07:20:09.966Z,59.94
2022-10-09T07:25:12.438Z,57.72
2022-10-09T07:30:14.950Z,58.93
2022-10-09T07:35:17.350Z,63.45
2022-10-09T07:40:20.362Z,62.20
2022-10-09T07:45:22.874Z,60.29
2022-10-09T07:50:26.575Z,58.23
2022-10-09T07:55:29.004Z,57.57
2022-10-09T08:00:31.378Z,63.13
2022-10-09T08:05:34.213Z,62.60
2022-10-09T08:10:36.780Z,60.05
2022-10-09T08:15:44.104Z,56.86
2022-10-09T08:20:56.562Z,58.27
2022-10-09T08:25:59.130Z,62.49
2022-10-09T08:31:10.541Z,61.60
2022-10-09T08:36:16.975Z,56.96
2022-10-09T08:41:25.155Z,57.84
2022-10-09T08:46:49.840Z,61.78
2022-10-09T08:51:54.274Z,58.92
2022-10-09T08:57:00.844Z,57.58
2022-10-09T09:02:25.196Z,59.15
2022-10-09T09:08:00.362Z,60.53
2022-10-09T09:13:35.099Z,63.40
2022-10-09T09:18:48.535Z,58.60
2022-10-09T09:23:52.120Z,57.29
2022-10-09T09:29:01.765Z,57.84
2022-10-09T09:34:10.485Z,58.67
2022-10-09T09:44:41.716Z,62.83
2022-10-09T09:50:05.654Z,58.05
2022-10-09T09:55:23.879Z,55.39
2022-10-09T10:00:26.383Z,56.92
2022-10-09T10:05:36.538Z,60.47
2022-10-09T10:10:45.384Z,57.45
2022-10-09T10:15:54.692Z,56.42
2022-10-09T10:21:04.317Z,59.24
2022-10-09T10:26:16.078Z,61.73
2022-10-09T10:32:00.352Z,61.16
2022-10-09T10:37:23.889Z,56.28
2022-10-09T10:42:45.118Z,56.36
2022-10-09T10:47:52.757Z,57.26
2022-10-09T10:53:26.178Z,58.37
2022-10-09T10:59:07.916Z,59.29
2022-10-09T11:04:55.688Z,58.69
2022-10-09T11:10:05.433Z,58.28
2022-10-09T11:15:50.115Z,59.03
2022-10-09T11:21:30.467Z,58.62
2022-10-09T11:26:41.145Z,59.28
2022-10-09T11:31:58.294Z,60.47
2022-10-09T11:37:02.535Z,60.58
2022-10-09T11:42:06.072Z,60.88
2022-10-09T11:47:27.989Z,61.45
2022-10-09T11:52:43.546Z,61.09
2022-10-09T11:57:46.084Z,60.94
2022-10-09T12:02:58.039Z,65.57
2022-10-09T12:08:13.020Z,63.13
2022-10-09T12:13:36.728Z,56.59
2022-10-09T12:18:45.500Z,56.54
2022-10-09T12:23:51.203Z,57.29
2022-10-09T12:28:58.571Z,57.95
2022-10-09T12:34:15.505Z,56.70
2022-10-09T12:39:23.946Z,56.90
2022-10-09T12:44:35.899Z,56.69
2022-10-09T12:49:38.619Z,56.99
2022-10-09T12:54:44.497Z,56.80
2022-10-09T12:59:48.502Z,56.33
2022-10-09T13:04:57.628Z,55.89
2022-10-09T13:10:04.835Z,56.41
2022-10-09T13:15:33.224Z,56.14
2022-10-09T13:20:35.887Z,57.08
2022-10-09T13:25:42.299Z,57.06
2022-10-09T13:30:44.783Z,57.25
2022-10-09T13:35:47.370Z,56.00
2022-10-09T13:40:50.799Z,55.71
2022-10-09T13:45:55.776Z,55.59
2022-10-09T13:50:59.828Z,55.69
2022-10-09T13:56:02.378Z,55.82
2022-10-09T14:01:05.160Z,55.31
2022-10-09T14:06:08.274Z,54.28
2022-10-09T14:11:12.385Z,55.00
2022-10-09T14:16:15.946Z,55.43
2022-10-09T14:21:18.368Z,55.38
2022-10-09T14:26:21.002Z,56.10
2022-10-09T14:31:23.709Z,55.65
2022-10-09T14:36:26.543Z,55.61
2022-10-09T14:41:33.221Z,55.61
2022-10-09T14:46:40.082Z,55.77
2022-10-09T14:51:42.825Z,55.57
2022-10-09T14:56:45.860Z,55.86
2022-10-09T15:01:48.495Z,55.89
2022-10-09T15:06:50.960Z,56.47
2022-10-09T15:11:53.473Z,56.78
2022-10-09T15:16:55.936Z,57.07
2022-10-09T15:21:58.341Z,56.38
2022-10-09T15:27:00.777Z,53.88
2022-10-09T15:32:03.798Z,54.00
2022-10-09T15:37:06.841Z,54.81
2022-10-09T15:42:09.307Z,55.66
2022-10-09T15:47:16.441Z,56.44
2022-10-09T15:52:19.462Z,57.18
2022-10-09T15:57:21.888Z,57.85
2022-10-09T16:02:24.400Z,58.63
2022-10-09T16:07:26.860Z,59.29
2022-10-09T16:12:29.347Z,59.76
2022-10-09T16:17:31.759Z,60.36
2022-10-09T16:22:34.175Z,60.73
2022-10-09T16:27:36.806Z,61.25
2022-10-09T16:32:39.239Z,61.44
2022-10-09T16:37:42.570Z,67.11
2022-10-09T16:42:45.021Z,67.02
2022-10-09T16:47:48.633Z,63.61
2022-10-09T16:52:51.294Z,58.66
2022-10-09T16:57:54.095Z,55.64
2022-10-09T17:02:56.921Z,56.82
2022-10-09T17:07:59.533Z,58.10
2022-10-09T17:13:02.045Z,60.42
2022-10-09T17:18:04.568Z,66.58
2022-10-09T17:23:07.101Z,66.99
2022-10-09T17:28:09.951Z,65.24
2022-10-09T17:33:16.259Z,62.95
2022-10-09T17:38:21.347Z,61.18
2022-10-09T17:43:23.800Z,57.49
2022-10-09T17:48:27.045Z,57.45
2022-10-09T17:53:32.067Z,59.39
2022-10-09T17:58:36.630Z,60.37
2022-10-09T18:03:40.015Z,66.53
2022-10-09T18:08:43.927Z,66.99
2022-10-09T18:13:46.821Z,63.99
2022-10-09T18:18:49.821Z,62.86
2022-10-09T18:23:52.382Z,61.20
2022-10-09T18:28:54.820Z,60.21
2022-10-09T18:33:58.748Z,57.63
2022-10-09T18:39:13.285Z,57.95
2022-10-09T18:44:22.398Z,60.09
2022-10-09T18:49:27.918Z,66.84
2022-10-09T18:54:31.029Z,66.98
2022-10-09T18:59:38.874Z,64.63
2022-10-09T19:04:41.500Z,63.09
2022-10-09T19:09:43.970Z,62.03
2022-10-09T19:14:47.068Z,61.25
2022-10-09T19:19:52.232Z,60.24
2022-10-09T19:24:54.977Z,57.68
2022-10-09T19:30:00.390Z,58.30
2022-10-09T19:35:04.609Z,60.48
2022-10-09T19:40:08.976Z,66.45
2022-10-09T19:45:11.485Z,67.55
2022-10-09T19:50:14.954Z,65.37
2022-10-09T19:55:18.867Z,63.34
2022-10-09T20:00:21.325Z,61.97
2022-10-09T20:05:23.793Z,61.51
2022-10-09T20:10:28.436Z,60.83
2022-10-09T20:15:32.027Z,60.32
2022-10-09T20:20:39.091Z,59.85
2022-10-09T20:25:42.127Z,59.75
2022-10-09T20:30:44.573Z,59.68
2022-10-09T20:35:47.014Z,57.50
2022-10-09T20:40:50.619Z,59.18
2022-10-09T20:45:55.726Z,60.09
2022-10-09T20:51:04.332Z,67.19
2022-10-09T20:56:11.282Z,69.23
2022-10-09T21:01:16.164Z,67.13
2022-10-09T21:06:21.008Z,64.76
2022-10-09T21:11:25.096Z,63.59
2022-10-09T21:16:28.929Z,62.44
2022-10-09T21:21:32.596Z,61.46
2022-10-09T21:26:36.117Z,60.97
2022-10-09T21:31:39.132Z,60.42
2022-10-09T21:37:08.913Z,60.03
2022-10-09T21:42:10.960Z,59.87
2022-10-09T21:47:20.860Z,59.66
2022-10-09T21:52:23.372Z,57.54
2022-10-09T21:57:26.107Z,59.24
2022-10-09T22:02:28.751Z,65.29
2022-10-09T22:07:32.855Z,65.50
2022-10-09T22:12:35.275Z,63.75
2022-10-09T22:17:37.767Z,62.40
2022-10-09T22:22:40.834Z,61.69
2022-10-09T22:27:43.234Z,60.93
2022-10-09T22:32:45.630Z,60.44
2022-10-09T22:37:48.396Z,59.85
2022-10-09T22:42:51.085Z,59.81
2022-10-09T22:47:53.681Z,59.88
2022-10-09T22:52:56.086Z,59.67
2022-10-09T22:57:58.794Z,57.25
2022-10-09T23:03:01.638Z,58.75
2022-10-09T23:08:04.070Z,61.55
2022-10-09T23:13:06.561Z,67.87
2022-10-09T23:18:08.960Z,67.16
2022-10-09T23:23:11.401Z,64.82
2022-10-09T23:28:14.207Z,63.06
2022-10-09T23:33:16.647Z,62.28
2022-10-09T23:38:19.235Z,61.66
2022-10-09T23:43:21.730Z,61.01
2022-10-09T23:48:24.863Z,60.18
2022-10-09T23:53:28.281Z,60.36
2022-10-09T23:58:30.876Z,60.51
